createdAt,value
2023-02-24T00:00:06.817Z,6.1
2023-02-24T00:01:05.708Z,6
2023-02-24T00:02:07.001Z,6.1
2023-02-24T00:03:06.688Z,6
2023-02-24T00:04:06.035Z,6.1
2023-02-24T00:05:06.109Z,6
2023-02-24T00:06:06.452Z,6
2023-02-24T00:07:06.143Z,6
2023-02-24T00:08:05.824Z,6
2023-02-24T00:09:06.629Z,6.1
2023-02-24T00:10:05.728Z,6
2023-02-24T00:11:05.939Z,6.1
2023-02-24T00:12:06.559Z,6
2023-02-24T00:13:06.505Z,6.1
2023-02-24T00:14:06.117Z,6.1
2023-02-24T00:15:05.801Z,6.1
2023-02-24T00:16:06.336Z,6.1
2023-02-24T00:17:06.105Z,6
2023-02-24T00:18:06.749Z,6.1
2023-02-24T00:19:06.649Z,6.1
2023-02-24T00:20:05.927Z,6.1
2023-02-24T00:21:06.454Z,6.1
2023-02-24T00:22:06.235Z,6.1
2023-02-24T00:23:05.850Z,6.1
2023-02-24T00:24:06.676Z,6.1
2023-02-24T00:25:06.315Z,6.1
2023-02-24T00:26:06.546Z,6.1
2023-02-24T00:27:06.175Z,6.1
2023-02-24T00:28:06.232Z,6
2023-02-24T00:29:06.177Z,6.1
2023-02-24T00:30:06.018Z,6.1
2023-02-24T00:31:06.543Z,6
2023-02-24T00:32:06.488Z,6.1
2023-02-24T00:33:07.061Z,6.1
2023-02-24T00:34:06.304Z,6
2023-02-24T00:35:06.307Z,6.1
2023-02-24T00:36:06.474Z,6
2023-02-24T00:37:06.430Z,6
2023-02-24T00:38:06.126Z,6
2023-02-24T00:39:06.048Z,6
2023-02-24T00:40:06.738Z,6
2023-02-24T00:41:06.146Z,6.1
2023-02-24T00:42:05.728Z,6
2023-02-24T00:43:06.463Z,6
2023-02-24T00:44:06.659Z,6
2023-02-24T00:45:06.473Z,6
2023-02-24T00:46:06.217Z,6
2023-02-24T00:47:06.574Z,6
2023-02-24T00:48:06.215Z,6
2023-02-24T00:49:06.086Z,6
2023-02-24T00:50:05.881Z,6
2023-02-24T00:51:06.240Z,6
2023-02-24T00:52:05.992Z,6
2023-02-24T00:53:05.838Z,6
2023-02-24T00:54:06.519Z,6
2023-02-24T00:55:06.401Z,6
2023-02-24T00:56:05.985Z,6
2023-02-24T00:57:05.926Z,6
2023-02-24T00:58:06.473Z,6
2023-02-24T00:59:06.395Z,6
2023-02-24T01:00:06.138Z,6
2023-02-24T01:01:06.372Z,6
2023-02-24T01:02:06.577Z,6
2023-02-24T01:03:06.182Z,6
2023-02-24T01:04:06.182Z,6
2023-02-24T01:05:06.619Z,6
2023-02-24T01:06:06.011Z,6
2023-02-24T01:07:06.495Z,6
2023-02-24T01:08:06.440Z,6
2023-02-24T01:09:06.125Z,6
2023-02-24T01:10:05.985Z,6
2023-02-24T01:11:05.931Z,6
2023-02-24T01:12:06.657Z,6
2023-02-24T01:13:06.252Z,6
2023-02-24T01:14:06.019Z,6
2023-02-24T01:15:05.490Z,6
2023-02-24T01:16:06.183Z,6
2023-02-24T01:17:05.545Z,6
2023-02-24T01:18:06.554Z,6
2023-02-24T01:19:06.377Z,6
2023-02-24T01:20:06.093Z,6
2023-02-24T01:21:06.251Z,6
2023-02-24T01:22:05.632Z,6
2023-02-24T01:23:05.648Z,6
2023-02-24T01:24:06.257Z,6
2023-02-24T01:25:06.027Z,6
2023-02-24T01:26:06.203Z,6
2023-02-24T01:27:05.960Z,6
2023-02-24T01:28:05.697Z,6
2023-02-24T01:29:06.585Z,6
2023-02-24T01:30:06.103Z,6
2023-02-24T01:31:06.241Z,6
2023-02-24T01:32:07.420Z,6
2023-02-24T01:33:07.051Z,6
2023-02-24T01:34:06.216Z,6
2023-02-24T01:35:05.961Z,6
2023-02-24T01:36:05.842Z,6
2023-02-24T01:37:06.339Z,6
2023-02-24T01:38:06.227Z,6
2023-02-24T01:39:06.069Z,6
2023-02-24T01:40:06.696Z,6
2023-02-24T01:41:06.242Z,6
2023-02-24T01:42:06.160Z,6
2023-02-24T01:43:05.853Z,6
2023-02-24T01:44:06.477Z,6
2023-02-24T01:45:06.412Z,6
2023-02-24T01:46:06.840Z,6
2023-02-24T01:47:06.172Z,6
2023-02-24T01:48:06.028Z,6
2023-02-24T01:49:05.834Z,6
2023-02-24T01:50:06.644Z,6
2023-02-24T01:51:06.670Z,6
2023-02-24T01:52:06.375Z,6
2023-02-24T01:53:06.300Z,6
2023-02-24T01:54:05.972Z,6
2023-02-24T01:55:05.568Z,6
2023-02-24T01:56:05.916Z,6
2023-02-24T01:57:06.722Z,6
2023-02-24T01:58:06.663Z,6
2023-02-24T01:59:06.425Z,6
2023-02-24T02:00:06.383Z,6
2023-02-24T02:01:06.487Z,6
2023-02-24T02:02:06.994Z,6
2023-02-24T02:03:06.005Z,6
2023-02-24T02:04:06.746Z,6.1
2023-02-24T02:05:06.382Z,6
2023-02-24T02:06:06.694Z,6.1
2023-02-24T02:07:06.395Z,6.1
2023-02-24T02:08:06.048Z,6.1
2023-02-24T02:09:05.827Z,6.1
2023-02-24T02:10:06.668Z,6.1
2023-02-24T02:11:06.066Z,6.1
2023-02-24T02:12:06.010Z,6
2023-02-24T02:13:05.845Z,6.1
2023-02-24T02:14:05.831Z,6
2023-02-24T02:15:06.010Z,6.1
2023-02-24T02:16:06.436Z,6.1
2023-02-24T02:17:06.064Z,6.1
2023-02-24T02:18:05.797Z,6.1
2023-02-24T02:19:06.591Z,6.1
2023-02-24T02:20:06.190Z,6.1
2023-02-24T02:21:06.440Z,6.1
2023-02-24T02:22:06.115Z,6.1
2023-02-24T02:23:05.802Z,6.1
2023-02-24T02:24:06.635Z,6.1
2023-02-24T02:25:06.293Z,6.1
2023-02-24T02:26:06.608Z,6.1
2023-02-24T02:27:05.990Z,6.1
2023-02-24T02:28:05.817Z,6.1
2023-02-24T02:29:05.688Z,6.1
2023-02-24T02:30:06.494Z,6.1
2023-02-24T02:31:07.230Z,6.1
2023-02-24T02:32:06.754Z,6.1
2023-02-24T02:33:06.434Z,6.1
2023-02-24T02:34:06.040Z,6.1
2023-02-24T02:35:05.746Z,6.1
2023-02-24T02:36:06.009Z,6.1
2023-02-24T02:37:05.619Z,6.1
2023-02-24T02:38:06.840Z,6.1
2023-02-24T02:39:06.763Z,6
2023-02-24T02:40:06.680Z,6.1
2023-02-24T02:41:06.403Z,6.1
2023-02-24T02:42:06.310Z,6.1
2023-02-24T02:43:05.916Z,6
2023-02-24T02:44:06.576Z,6.1
2023-02-24T02:45:06.294Z,6.1
2023-02-24T02:46:06.663Z,6
2023-02-24T02:47:06.327Z,6.1
2023-02-24T02:48:05.888Z,6.1
2023-02-24T02:49:05.840Z,6
2023-02-24T02:50:06.626Z,6
2023-02-24T02:51:05.778Z,6
2023-02-24T02:52:06.445Z,6.1
2023-02-24T02:53:06.316Z,6.1
2023-02-24T02:54:05.958Z,6.1
2023-02-24T02:55:05.853Z,6.1
2023-02-24T02:56:05.905Z,6.1
2023-02-24T02:57:05.921Z,6
2023-02-24T02:58:06.388Z,6
2023-02-24T02:59:06.124Z,6.1
2023-02-24T03:00:06.117Z,6
2023-02-24T03:01:06.552Z,6
2023-02-24T03:02:06.177Z,6
2023-02-24T03:03:06.124Z,6
2023-02-24T03:04:06.627Z,6
2023-02-24T03:05:06.810Z,6
2023-02-24T03:06:05.842Z,6
2023-02-24T03:07:06.522Z,6
2023-02-24T03:08:06.372Z,6
2023-02-24T03:09:06.037Z,6
2023-02-24T03:10:05.892Z,6
2023-02-24T03:11:06.339Z,6
2023-02-24T03:12:06.047Z,6
2023-02-24T03:13:05.655Z,6
2023-02-24T03:14:06.447Z,6
2023-02-24T03:15:06.369Z,6
2023-02-24T03:16:05.780Z,6
2023-02-24T03:17:06.659Z,6
2023-02-24T03:18:06.458Z,6
2023-02-24T03:19:06.072Z,6
2023-02-24T03:20:05.993Z,6
2023-02-24T03:21:06.251Z,6
2023-02-24T03:22:05.936Z,6
2023-02-24T03:23:05.682Z,6
2023-02-24T03:24:06.306Z,6
2023-02-24T03:25:06.435Z,6
2023-02-24T03:26:05.877Z,6
2023-02-24T03:27:06.565Z,6
2023-02-24T03:28:06.468Z,6
2023-02-24T03:29:06.454Z,6
2023-02-24T03:30:05.876Z,6
2023-02-24T03:31:06.362Z,6
2023-02-24T03:32:06.214Z,6
2023-02-24T03:33:06.465Z,6
2023-02-24T03:34:06.372Z,6
2023-02-24T03:35:06.014Z,6
2023-02-24T03:36:06.356Z,6
2023-02-24T03:37:05.971Z,6
2023-02-24T03:38:05.740Z,6
2023-02-24T03:39:06.519Z,6
2023-02-24T03:40:06.246Z,6
2023-02-24T03:41:06.399Z,6
2023-02-24T03:42:06.332Z,6
2023-02-24T03:43:06.070Z,6
2023-02-24T03:44:06.045Z,6
2023-02-24T03:45:06.107Z,6
2023-02-24T03:46:06.275Z,6
2023-02-24T03:47:05.980Z,6
2023-02-24T03:48:06.696Z,6
2023-02-24T03:49:06.415Z,6
2023-02-24T03:50:06.369Z,6
2023-02-24T03:51:06.220Z,6
2023-02-24T03:52:05.975Z,6
2023-02-24T03:53:05.949Z,6
2023-02-24T03:54:06.686Z,6
2023-02-24T03:55:06.580Z,6
2023-02-24T03:56:05.785Z,6
2023-02-24T03:57:06.722Z,6
2023-02-24T03:58:06.283Z,6
2023-02-24T03:59:06.219Z,6
2023-02-24T04:00:06.017Z,6
2023-02-24T04:01:06.276Z,6
2023-02-24T04:02:06.586Z,6
2023-02-24T04:03:05.896Z,6
2023-02-24T04:04:05.837Z,6
2023-02-24T04:05:06.892Z,6
2023-02-24T04:06:05.841Z,6
2023-02-24T04:07:06.616Z,6
2023-02-24T04:08:06.548Z,6
2023-02-24T04:09:06.197Z,6
2023-02-24T04:10:06.124Z,6
2023-02-24T04:11:05.651Z,5.9
2023-02-24T04:12:06.388Z,5.9
2023-02-24T04:13:06.357Z,5.9
2023-02-24T04:14:05.865Z,5.9
2023-02-24T04:15:05.724Z,5.9
2023-02-24T04:16:05.786Z,5.9
2023-02-24T04:17:06.497Z,5.9
2023-02-24T04:18:06.424Z,5.9
2023-02-24T04:19:06.040Z,5.9
2023-02-24T04:20:05.761Z,5
2023-02-24T04:21:06.119Z,5.8
2023-02-24T04:22:05.853Z,5.9
2023-02-24T04:23:05.746Z,5.9
2023-02-24T04:24:06.439Z,5.8
2023-02-24T04:25:06.231Z,5.9
2023-02-24T04:26:06.398Z,5
2023-02-24T04:27:06.098Z,5.8
2023-02-24T04:28:05.950Z,5.8
2023-02-24T04:29:06.585Z,5.8
2023-02-24T04:30:06.360Z,5.8
2023-02-24T04:31:06.258Z,5.8
2023-02-24T04:32:07.240Z,5.8
2023-02-24T04:33:06.208Z,5.8
2023-02-24T04:34:05.996Z,5.8
2023-02-24T04:35:06.711Z,5
2023-02-24T04:36:06.031Z,5
2023-02-24T04:37:05.613Z,5.8
2023-02-24T04:38:06.579Z,5.8
2023-02-24T04:39:06.277Z,5.7
2023-02-24T04:40:06.161Z,5.7
2023-02-24T04:41:06.252Z,5.7
2023-02-24T04:42:06.085Z,5.7
2023-02-24T04:43:05.807Z,5.7
2023-02-24T04:44:06.658Z,5.7
2023-02-24T04:45:06.264Z,5.7
2023-02-24T04:46:06.735Z,5.7
2023-02-24T04:47:06.179Z,5.7
2023-02-24T04:48:06.020Z,5
2023-02-24T04:49:06.683Z,5.7
2023-02-24T04:50:06.605Z,5.6
2023-02-24T04:51:05.786Z,5
2023-02-24T04:52:06.311Z,5.6
2023-02-24T04:53:06.084Z,5.6
2023-02-24T04:54:05.983Z,5.6
2023-02-24T04:55:05.688Z,5.6
2023-02-24T04:56:05.860Z,5.6
2023-02-24T04:57:05.716Z,5
2023-02-24T04:58:06.444Z,5.6
2023-02-24T04:59:06.285Z,5
2023-02-24T05:00:05.972Z,5.6
2023-02-24T05:01:06.259Z,5
2023-02-24T05:02:06.018Z,5.6
2023-02-24T05:03:06.739Z,5
2023-02-24T05:04:06.815Z,5.6
2023-02-24T05:05:06.052Z,5.6
2023-02-24T05:06:06.356Z,5.6
2023-02-24T05:07:05.872Z,5.6
2023-02-24T05:08:05.608Z,5.6
2023-02-24T05:09:06.384Z,5
2023-02-24T05:10:06.267Z,5.6
2023-02-24T05:11:06.322Z,5.6
2023-02-24T05:12:06.084Z,5
2023-02-24T05:13:06.758Z,5
2023-02-24T05:14:06.460Z,5.6
2023-02-24T05:15:06.339Z,5.6
2023-02-24T05:16:06.834Z,5.6
2023-02-24T05:17:06.235Z,5.6
2023-02-24T05:18:06.017Z,5.6
2023-02-24T05:19:05.883Z,5.6
2023-02-24T05:20:06.432Z,5.6
2023-02-24T05:21:06.429Z,5
2023-02-24T05:22:06.038Z,5
2023-02-24T05:23:05.794Z,5
2023-02-24T05:24:07.286Z,5.6
2023-02-24T05:25:06.513Z,5.6
2023-02-24T05:26:06.005Z,5.6
2023-02-24T05:27:06.736Z,5.6
2023-02-24T05:28:06.307Z,5.6
2023-02-24T05:29:05.827Z,5.6
2023-02-24T05:30:05.786Z,5.6
2023-02-24T05:31:06.717Z,5.6
2023-02-24T05:32:06.879Z,5.6
2023-02-24T05:33:06.172Z,5.6
2023-02-24T05:34:06.019Z,5
2023-02-24T05:35:05.893Z,5
2023-02-24T05:36:07.794Z,5.6
2023-02-24T05:37:06.526Z,5.6
2023-02-24T05:38:06.504Z,5
2023-02-24T05:39:06.241Z,5.6
2023-02-24T05:40:06.004Z,5
2023-02-24T05:41:06.642Z,5.6
2023-02-24T05:42:06.251Z,5.6
2023-02-24T05:43:06.117Z,5.6
2023-02-24T05:44:05.772Z,5.6
2023-02-24T05:45:06.591Z,5.6
2023-02-24T05:46:05.967Z,5.6
2023-02-24T05:47:06.824Z,5
2023-02-24T05:48:06.443Z,5.6
2023-02-24T05:49:06.266Z,5.6
2023-02-24T05:50:05.974Z,5.6
2023-02-24T05:51:08.988Z,5.6
2023-02-24T05:52:05.831Z,5.6
2023-02-24T05:53:05.919Z,5.6
2023-02-24T05:54:06.378Z,5.6
2023-02-24T05:55:06.464Z,5.5
2023-02-24T05:56:06.466Z,5.6
2023-02-24T05:57:06.216Z,5.6
2023-02-24T05:58:06.006Z,5.6
2023-02-24T05:59:06.756Z,5
2023-02-24T06:00:06.357Z,5
2023-02-24T06:01:05.778Z,5.6
2023-02-24T06:02:06.594Z,5
2023-02-24T06:03:06.530Z,5.6
2023-02-24T06:04:06.273Z,5.6
2023-02-24T06:05:05.593Z,5.6
2023-02-24T06:06:05.980Z,5.5
2023-02-24T06:07:06.602Z,5.5
2023-02-24T06:08:06.409Z,5.6
2023-02-24T06:09:05.956Z,5.6
2023-02-24T06:10:05.703Z,5
2023-02-24T06:11:06.105Z,5.6
2023-02-24T06:12:06.111Z,5.5
2023-02-24T06:13:06.612Z,5.6
2023-02-24T06:14:06.630Z,5.5
2023-02-24T06:15:06.310Z,5.5
2023-02-24T06:16:06.483Z,5.5
2023-02-24T06:17:06.287Z,5
2023-02-24T06:18:06.236Z,5.5
2023-02-24T06:19:06.007Z,5
2023-02-24T06:20:06.847Z,5.5
2023-02-24T06:21:05.889Z,5
2023-02-24T06:22:06.635Z,5.5
2023-02-24T06:23:05.956Z,5.5
2023-02-24T06:24:05.878Z,5.5
2023-02-24T06:25:06.718Z,5.5
2023-02-24T06:26:05.894Z,5.4
2023-02-24T06:27:05.648Z,5.4
2023-02-24T06:28:06.362Z,5.5
2023-02-24T06:29:06.121Z,5.4
2023-02-24T06:30:06.138Z,5.4
2023-02-24T06:31:06.632Z,5.4
2023-02-24T06:32:06.561Z,5
2023-02-24T06:33:05.808Z,5.4
2023-02-24T06:34:05.884Z,5.4
2023-02-24T06:35:06.603Z,5.4
2023-02-24T06:36:06.344Z,5.4
2023-02-24T06:37:05.837Z,5.4
2023-02-24T06:38:05.870Z,5.4
2023-02-24T06:39:06.657Z,5.4
2023-02-24T06:40:06.585Z,5.4
2023-02-24T06:41:05.708Z,5.4
2023-02-24T06:42:05.646Z,5.4
2023-02-24T06:43:06.444Z,5.4
2023-02-24T06:44:06.308Z,5
2023-02-24T06:45:08.101Z,5
2023-02-24T06:46:06.380Z,5.4
2023-02-24T06:47:06.085Z,5.3
2023-02-24T06:48:05.972Z,5.4
2023-02-24T06:49:06.246Z,5.4
2023-02-24T06:50:06.313Z,5.4
2023-02-24T06:51:06.366Z,5.4
2023-02-24T06:52:06.430Z,5.3
2023-02-24T06:53:05.983Z,5.3
2023-02-24T06:54:05.921Z,5.4
2023-02-24T06:55:06.656Z,5.4
2023-02-24T06:56:05.918Z,5.4
2023-02-24T06:57:06.676Z,5
2023-02-24T06:58:06.750Z,5
2023-02-24T06:59:06.171Z,5
2023-02-24T07:00:06.234Z,5.3
2023-02-24T07:01:06.377Z,5.3
2023-02-24T07:02:06.458Z,5.4
2023-02-24T07:03:05.575Z,5.4
2023-02-24T07:04:07.003Z,5.4
2023-02-24T07:05:06.542Z,5.4
2023-02-24T07:06:06.677Z,5.4
2023-02-24T07:07:06.374Z,5.4
2023-02-24T07:08:06.184Z,5.4
2023-02-24T07:09:05.873Z,5.4
2023-02-24T07:10:06.633Z,5.4
2023-02-24T07:11:06.069Z,5.4
2023-02-24T07:12:05.856Z,5.5
2023-02-24T07:13:06.419Z,5.4
2023-02-24T07:14:06.398Z,5.5
2023-02-24T07:15:05.981Z,5.5
2023-02-24T07:16:06.291Z,5.5
2023-02-24T07:17:06.319Z,5.5
2023-02-24T07:18:06.008Z,5.4
2023-02-24T07:19:05.676Z,5.5
2023-02-24T07:20:06.626Z,5
2023-02-24T07:21:05.804Z,5
2023-02-24T07:22:06.484Z,5.5
2023-02-24T07:23:06.336Z,5.5
2023-02-24T07:24:05.703Z,5.5
2023-02-24T07:25:06.270Z,5.5
2023-02-24T07:26:06.009Z,5.5
2023-02-24T07:27:06.208Z,5.5
2023-02-24T07:28:05.963Z,5.6
2023-02-24T07:29:06.769Z,5.5
2023-02-24T07:30:06.491Z,5.5
2023-02-24T07:31:07.067Z,5.6
2023-02-24T07:32:07.240Z,5
2023-02-24T07:33:06.331Z,5.6
2023-02-24T07:34:05.922Z,5.6
2023-02-24T07:35:06.774Z,5.6
2023-02-24T07:36:05.939Z,5.6
2023-02-24T07:37:06.743Z,5
2023-02-24T07:38:06.384Z,5.6
2023-02-24T07:39:06.056Z,5
2023-02-24T07:40:06.027Z,5.6
2023-02-24T07:41:06.085Z,5.6
2023-02-24T07:42:05.854Z,5.6
2023-02-24T07:43:06.611Z,5.6
2023-02-24T07:44:06.248Z,5
2023-02-24T07:45:06.365Z,5
2023-02-24T07:46:06.519Z,5.6
2023-02-24T07:47:05.996Z,5.6
2023-02-24T07:48:05.962Z,5.6
2023-02-24T07:49:05.808Z,5.6
2023-02-24T07:50:06.748Z,5.6
2023-02-24T07:51:06.018Z,5.6
2023-02-24T07:52:05.707Z,5.7
2023-02-24T07:53:06.673Z,5.6
2023-02-24T07:54:06.343Z,5.7
2023-02-24T07:55:06.357Z,5.6
2023-02-24T07:56:06.517Z,5.7
2023-02-24T07:57:06.344Z,5
2023-02-24T07:58:06.127Z,5.7
2023-02-24T07:59:05.778Z,5.7
2023-02-24T08:00:07.259Z,5.8
2023-02-24T08:01:06.087Z,5.8
2023-02-24T08:02:07.297Z,5
2023-02-24T08:03:06.399Z,5.9
2023-02-24T08:04:06.087Z,5.8
2023-02-24T08:05:05.868Z,5.8
2023-02-24T08:06:06.384Z,5.9
2023-02-24T08:07:05.964Z,5.9
2023-02-24T08:08:05.906Z,5.9
2023-02-24T08:09:06.606Z,5.9
2023-02-24T08:10:06.623Z,5.9
2023-02-24T08:11:06.477Z,5
2023-02-24T08:12:06.222Z,6
2023-02-24T08:13:05.977Z,6
2023-02-24T08:14:05.757Z,6
2023-02-24T08:15:06.406Z,6
2023-02-24T08:16:06.846Z,6.1
2023-02-24T08:17:06.413Z,6.1
2023-02-24T08:18:06.202Z,6.1
2023-02-24T08:19:06.059Z,6.1
2023-02-24T08:20:06.519Z,6.1
2023-02-24T08:21:06.022Z,6.2
2023-02-24T08:22:06.030Z,6
2023-02-24T08:23:05.734Z,6.2
2023-02-24T08:24:06.696Z,6.3
2023-02-24T08:25:06.376Z,6.2
2023-02-24T08:26:06.036Z,6.3
2023-02-24T08:27:05.855Z,6.3
2023-02-24T08:28:12.730Z,6.4
2023-02-24T08:29:06.340Z,6
2023-02-24T08:30:06.213Z,6.4
2023-02-24T08:31:06.645Z,6.4
2023-02-24T08:32:06.455Z,6.4
2023-02-24T08:33:05.849Z,6.4
2023-02-24T08:34:06.413Z,6.4
2023-02-24T08:35:06.372Z,6.4
2023-02-24T08:36:07.137Z,6.5
2023-02-24T08:37:06.384Z,6.5
2023-02-24T08:38:06.383Z,6.6
2023-02-24T08:39:05.949Z,6
2023-02-24T08:40:05.731Z,6.6
2023-02-24T08:41:05.800Z,6.7
2023-02-24T08:42:06.806Z,6.7
2023-02-24T08:43:06.395Z,6.7
2023-02-24T08:44:06.021Z,6.7
2023-02-24T08:45:06.340Z,6.8
2023-02-24T08:46:06.763Z,6
2023-02-24T08:47:06.749Z,6.8
2023-02-24T08:48:06.301Z,6.8
2023-02-24T08:49:06.205Z,6.8
2023-02-24T08:50:06.004Z,6
2023-02-24T08:51:06.314Z,6.8
2023-02-24T08:52:06.093Z,6.8
2023-02-24T08:53:05.940Z,6.9
2023-02-24T08:54:05.639Z,6.9
2023-02-24T08:55:06.358Z,6.9
2023-02-24T08:56:06.352Z,7
2023-02-24T08:57:06.386Z,7
2023-02-24T08:58:05.906Z,7
2023-02-24T08:59:06.127Z,7
2023-02-24T09:00:06.601Z,7
2023-02-24T09:01:06.148Z,7
2023-02-24T09:02:09.334Z,7.1
2023-02-24T09:03:06.332Z,7.1
2023-02-24T09:04:06.160Z,7.1
2023-02-24T09:05:06.230Z,7.1
2023-02-24T09:06:06.547Z,7.1
2023-02-24T09:07:15.799Z,7.2
2023-02-24T09:08:05.741Z,7
2023-02-24T09:09:06.326Z,7.2
2023-02-24T09:10:06.472Z,7
2023-02-24T09:11:06.693Z,7.3
2023-02-24T09:12:06.291Z,7.3
2023-02-24T09:13:05.968Z,7.4
2023-02-24T09:14:10.913Z,7.4
2023-02-24T09:15:06.067Z,7.4
2023-02-24T09:16:06.997Z,7.4
2023-02-24T09:17:06.719Z,7.4
2023-02-24T09:18:06.850Z,7.4
2023-02-24T09:19:06.120Z,7.4
2023-02-24T09:20:06.108Z,7.4
2023-02-24T09:21:06.001Z,7.4
2023-02-24T09:22:21.330Z,7.5
2023-02-24T09:23:06.434Z,7.5
2023-02-24T09:24:06.340Z,7.4
2023-02-24T09:25:06.147Z,7.5
2023-02-24T09:26:06.117Z,7.6
2023-02-24T09:27:06.032Z,7.6
2023-02-24T09:28:05.947Z,7.6
2023-02-24T09:29:05.598Z,7.6
2023-02-24T09:30:06.562Z,7.6
2023-02-24T09:31:07.090Z,7
2023-02-24T09:32:07.151Z,7.7
2023-02-24T09:33:06.673Z,7.7
2023-02-24T09:34:06.075Z,7.7
2023-02-24T09:35:06.678Z,7.8
2023-02-24T09:36:06.603Z,7.8
2023-02-24T09:37:06.502Z,7.8
2023-02-24T09:38:06.082Z,7.8
2023-02-24T09:39:06.204Z,7.8
2023-02-24T09:40:05.478Z,7.8
2023-02-24T09:41:21.458Z,7.9
2023-02-24T09:42:05.950Z,7.9
2023-02-24T09:43:05.707Z,7.9
2023-02-24T09:44:06.635Z,7.8
2023-02-24T09:45:06.083Z,7.9
2023-02-24T09:46:06.582Z,7.9
2023-02-24T09:47:06.184Z,8
2023-02-24T09:48:05.818Z,7.9
2023-02-24T09:49:06.694Z,8
2023-02-24T09:50:06.440Z,7.9
2023-02-24T09:51:09.073Z,7.9
2023-02-24T09:52:05.972Z,8
2023-02-24T09:53:15.177Z,7
2023-02-24T09:54:05.782Z,8
2023-02-24T09:55:06.493Z,8
2023-02-24T09:56:05.658Z,7.9
2023-02-24T09:57:06.475Z,7.9
2023-02-24T09:58:06.112Z,8
2023-02-24T09:59:05.924Z,8
2023-02-24T10:00:06.654Z,8
2023-02-24T10:01:06.710Z,7.9
2023-02-24T10:02:06.678Z,8
2023-02-24T10:03:06.319Z,8
2023-02-24T10:04:22.379Z,7.9
2023-02-24T10:05:05.852Z,7.9
2023-02-24T10:06:05.642Z,7.9
2023-02-24T10:07:05.791Z,7.9
2023-02-24T10:08:06.556Z,8
2023-02-24T10:09:06.236Z,8
2023-02-24T10:10:05.929Z,8
2023-02-24T10:11:06.111Z,8
2023-02-24T10:12:06.087Z,8
2023-02-24T10:13:06.718Z,8
2023-02-24T10:14:07.904Z,8.2
2023-02-24T10:15:06.378Z,8.1
2023-02-24T10:16:12.993Z,8.2
2023-02-24T10:17:06.568Z,7
2023-02-24T10:18:06.521Z,8.2
2023-02-24T10:19:06.141Z,7
2023-02-24T10:20:06.047Z,8.2
2023-02-24T10:21:06.328Z,8.2
2023-02-24T10:22:05.898Z,8.3
2023-02-24T10:23:06.348Z,8.3
2023-02-24T10:24:06.347Z,8.3
2023-02-24T10:25:06.331Z,8.4
2023-02-24T10:26:11.070Z,7
2023-02-24T10:27:19.026Z,8.4
2023-02-24T10:28:05.720Z,8.5
2023-02-24T10:29:06.681Z,8.6
2023-02-24T10:30:06.556Z,8.6
2023-02-24T10:31:06.774Z,8.6
2023-02-24T10:32:07.239Z,7
2023-02-24T10:33:06.267Z,8.6
2023-02-24T10:34:05.799Z,7
2023-02-24T10:35:05.600Z,8.6
2023-02-24T10:36:06.377Z,8.5
2023-02-24T10:37:06.085Z,8.6
2023-02-24T10:38:06.056Z,8.5
2023-02-24T10:39:06.450Z,8.5
2023-02-24T10:40:06.422Z,8.6
2023-02-24T10:41:05.925Z,8.5
2023-02-24T10:42:07.056Z,8.5
2023-02-24T10:43:06.240Z,8.5
2023-02-24T10:44:06.401Z,8.5
2023-02-24T10:46:06.596Z,8.4
2023-02-24T10:47:06.497Z,8.4
2023-02-24T10:48:05.959Z,8.4
2023-02-24T10:49:05.767Z,8.4
2023-02-24T10:50:06.189Z,8.4
2023-02-24T10:51:06.357Z,8.4
2023-02-24T10:52:06.038Z,8.4
2023-02-24T10:53:05.953Z,8.4
2023-02-24T10:54:05.782Z,7
2023-02-24T10:55:06.447Z,8.5
2023-02-24T10:56:06.741Z,8.4
2023-02-24T10:57:06.385Z,8.4
2023-02-24T10:58:06.171Z,8.4
2023-02-24T10:59:06.075Z,8.5
2023-02-24T11:00:05.889Z,8.5
2023-02-24T11:01:06.378Z,8.5
2023-02-24T11:02:05.795Z,8.5
2023-02-24T11:03:06.799Z,8.5
2023-02-24T11:04:06.472Z,8
2023-02-24T11:05:06.992Z,8.5
2023-02-24T11:06:06.661Z,8.5
2023-02-24T11:07:06.110Z,8.5
2023-02-24T11:08:05.994Z,8.4
2023-02-24T11:09:05.823Z,8.5
2023-02-24T11:10:07.564Z,8.5
2023-02-24T11:11:05.937Z,8.4
2023-02-24T11:12:06.527Z,8.5
2023-02-24T11:13:13.806Z,8.4
2023-02-24T11:14:06.262Z,8.4
2023-02-24T11:15:06.153Z,8.4
2023-02-24T11:16:07.023Z,8.4
2023-02-24T11:17:06.604Z,8.4
2023-02-24T11:18:06.612Z,8.4
2023-02-24T11:19:06.236Z,8.4
2023-02-24T11:20:06.061Z,8.4
2023-02-24T11:21:05.491Z,8.4
2023-02-24T11:22:06.469Z,8.4
2023-02-24T11:23:06.234Z,8.4
2023-02-24T11:24:06.016Z,8.4
2023-02-24T11:25:06.162Z,8.4
2023-02-24T11:26:06.142Z,8.5
2023-02-24T11:27:08.462Z,8
2023-02-24T11:28:05.820Z,8
2023-02-24T11:29:06.417Z,8.5
2023-02-24T11:30:06.484Z,8.4
2023-02-24T11:31:07.144Z,8.5
2023-02-24T11:32:07.030Z,8
2023-02-24T11:33:06.375Z,8.5
2023-02-24T11:34:07.281Z,8.5
2023-02-24T11:35:05.988Z,8.5
2023-02-24T11:36:06.026Z,8.5
2023-02-24T11:37:05.790Z,8.4
2023-02-24T11:38:07.196Z,8.5
2023-02-24T11:39:23.794Z,8.5
2023-02-24T11:40:06.376Z,8
2023-02-24T11:41:06.100Z,8.5
2023-02-24T11:42:05.821Z,8.4
2023-02-24T11:43:07.227Z,8.5
2023-02-24T11:44:06.413Z,8.5
2023-02-24T11:45:06.188Z,8.4
2023-02-24T11:46:06.417Z,8.4
2023-02-24T11:47:06.171Z,8
2023-02-24T11:48:05.766Z,8.5
2023-02-24T11:49:06.761Z,8.5
2023-02-24T11:50:09.272Z,8.6
2023-02-24T11:51:06.196Z,8
2023-02-24T11:52:06.159Z,8
2023-02-24T11:53:06.029Z,8.6
2023-02-24T11:54:05.909Z,8.6
2023-02-24T11:55:06.641Z,8.7
2023-02-24T11:56:05.739Z,8.7
2023-02-24T11:57:06.286Z,8.8
2023-02-24T11:58:06.135Z,8.8
2023-02-24T11:59:05.678Z,8.8
2023-02-24T12:00:06.721Z,8.8
2023-02-24T12:01:05.932Z,8
2023-02-24T12:02:05.721Z,8.9
2023-02-24T12:03:08.426Z,8
2023-02-24T12:04:06.300Z,8.9
2023-02-24T12:05:06.076Z,9
2023-02-24T12:06:06.763Z,9
2023-02-24T12:07:08.715Z,9
2023-02-24T12:08:05.858Z,9.1
2023-02-24T12:09:06.600Z,9.2
2023-02-24T12:10:21.094Z,9.2
2023-02-24T12:11:06.694Z,9.2
2023-02-24T12:12:06.393Z,9.3
2023-02-24T12:13:05.929Z,9.3
2023-02-24T12:14:05.810Z,9.3
2023-02-24T12:15:06.462Z,9.4
2023-02-24T12:16:06.329Z,9
2023-02-24T12:17:05.818Z,9
2023-02-24T12:18:06.616Z,9.5
2023-02-24T12:19:06.155Z,9.4
2023-02-24T12:20:06.678Z,9.5
2023-02-24T12:21:06.360Z,9
2023-02-24T12:22:06.033Z,9.6
2023-02-24T12:23:05.823Z,9.5
2023-02-24T12:24:08.555Z,9.6
2023-02-24T12:25:06.433Z,9.6
2023-02-24T12:26:06.814Z,9.6
2023-02-24T12:27:06.384Z,9
2023-02-24T12:28:06.221Z,9.5
2023-02-24T12:29:06.124Z,9.6
2023-02-24T12:30:06.050Z,9.6
2023-02-24T12:31:06.398Z,9.6
2023-02-24T12:32:06.662Z,9.6
2023-02-24T12:33:06.790Z,9.6
2023-02-24T12:34:06.243Z,9.6
2023-02-24T12:35:06.268Z,9.6
2023-02-24T12:36:06.233Z,9.6
2023-02-24T12:37:05.750Z,9.6
2023-02-24T12:38:06.687Z,9
2023-02-24T12:39:06.518Z,9.6
2023-02-24T12:40:06.190Z,9.6
2023-02-24T12:41:06.188Z,9.6
2023-02-24T12:42:05.797Z,9.6
2023-02-24T12:43:05.754Z,9
2023-02-24T12:44:06.494Z,9.6
2023-02-24T12:45:06.213Z,9.6
2023-02-24T12:46:06.097Z,9.6
2023-02-24T12:47:06.575Z,9.6
2023-02-24T12:48:06.452Z,9.6
2023-02-24T12:49:06.169Z,9.5
2023-02-24T12:50:05.877Z,9.6
2023-02-24T12:51:05.974Z,9.5
2023-02-24T12:52:05.757Z,9.6
2023-02-24T12:53:06.555Z,9.5
2023-02-24T12:54:06.474Z,9.6
2023-02-24T12:55:06.239Z,9.6
2023-02-24T12:56:06.069Z,9.6
2023-02-24T12:57:05.945Z,9.6
2023-02-24T12:58:05.702Z,9.6
2023-02-24T12:59:06.811Z,9.6
2023-02-24T13:00:06.474Z,9.6
2023-02-24T13:01:06.176Z,9.6
2023-02-24T13:02:06.126Z,9.7
2023-02-24T13:03:06.485Z,9.7
2023-02-24T13:04:06.527Z,9.7
2023-02-24T13:05:06.439Z,9.8
2023-02-24T13:06:06.415Z,9.8
2023-02-24T13:07:05.855Z,9.8
2023-02-24T13:08:05.799Z,9
2023-02-24T13:09:06.581Z,9.8
2023-02-24T13:10:06.530Z,9.9
2023-02-24T13:11:06.225Z,9.9
2023-02-24T13:12:06.862Z,9.9
2023-02-24T13:13:06.479Z,10
2023-02-24T13:14:06.332Z,9.9
2023-02-24T13:15:06.116Z,9.9
2023-02-24T13:16:05.941Z,10
2023-02-24T13:17:06.691Z,10
2023-02-24T13:18:06.464Z,10
2023-02-24T13:19:06.231Z,9
2023-02-24T13:20:05.825Z,10
2023-02-24T13:21:06.013Z,10
2023-02-24T13:22:05.729Z,10
2023-02-24T13:23:06.190Z,10
2023-02-24T13:24:06.286Z,10
2023-02-24T13:25:06.129Z,10
2023-02-24T13:26:06.104Z,10
2023-02-24T13:27:05.715Z,10
2023-02-24T13:28:05.611Z,10
2023-02-24T13:29:06.309Z,10
2023-02-24T13:30:06.148Z,10.1
2023-02-24T13:31:06.372Z,10.1
2023-02-24T13:32:06.427Z,10.1
2023-02-24T13:33:05.804Z,10.2
2023-02-24T13:34:06.581Z,10.1
2023-02-24T13:35:06.200Z,10.1
2023-02-24T13:36:06.386Z,10
2023-02-24T13:37:06.284Z,10
2023-02-24T13:38:06.113Z,10.2
2023-02-24T13:39:05.610Z,10.2
2023-02-24T13:40:06.743Z,10.2
2023-02-24T13:41:06.221Z,10.2
2023-02-24T13:42:06.442Z,10.2
2023-02-24T13:43:06.160Z,10.2
2023-02-24T13:44:05.905Z,10.2
2023-02-24T13:45:05.883Z,10.2
2023-02-24T13:46:06.685Z,10.2
2023-02-24T13:47:06.074Z,10.2
2023-02-24T13:48:07.386Z,10.2
2023-02-24T13:49:06.904Z,10
2023-02-24T13:50:06.417Z,10.2
2023-02-24T13:51:06.477Z,10.2
2023-02-24T13:52:06.057Z,10.2
2023-02-24T13:53:06.080Z,10.2
2023-02-24T13:54:05.629Z,10.2
2023-02-24T13:55:06.478Z,10.2
2023-02-24T13:56:06.714Z,10.4
2023-02-24T13:57:06.580Z,10.4
2023-02-24T13:58:06.338Z,10.3
2023-02-24T13:59:06.070Z,10
2023-02-24T14:00:05.778Z,10.3
2023-02-24T14:01:06.344Z,10.3
2023-02-24T14:02:06.253Z,10.4
2023-02-24T14:03:05.812Z,10.3
2023-02-24T14:04:06.427Z,10.3
2023-02-24T14:05:06.318Z,10.3
2023-02-24T14:06:06.226Z,10.3